KSAN Airport Information

Runway Information
Runway 09 Length 9401 ft width 200 ft
Elevation 14 ft Threshold 700 ft Heading 106
Runway 27 Length 9401 ft Width 200 ft
Elevation 13 ft Threshold 1810 ft Heading 286
Airport Frequencies
Type A/D Name SOCAL APP/ Frequency 119.6 MHZ
Type ATIS Name ATIS Frequency 134.8 MHZ
Type CLD Name CLNC DEL Frequency 125.9 MHZ
Type GND Name GND Frequency 123.9 MHZ
Type MISC Name CG Frequency 157.15 MHZ
Type MISC Name CG Frequency 898.4 MHZ
Type TWR Name LINDBERGH Frequency 118.3 MHZ
Type UNIC Name UNICOM Frequency 122.95 MHZ
Airport Navaids
Type NDB Name Boing Frequency 245 KHZ
Airport Weather Information & NOTAM
ADDS - METARS form results

(1045 UTC 19 December 2018)
Data provider http://aviationweather.gov/metar/data/
 
METAR text: KSAN 191041Z 06003KT 4SM BR SCT003 BKN250 16/13 A3017 RMK AO2 VIS S-SW-W 1 1/2 T01560133 $
Conditions at: KSAN (SAN DIEGO , CA, US) observed 1041 UTC 19 December 2018
Temperature: 15.6°C (60°F)
Dewpoint: 13.3°C (56°F) [RH = 86%]
Pressure (altimeter): 30.17 inches Hg (1021.8 mb)
Winds: from the ENE (60 degrees) at 3 MPH (3 knots; 1.5 m/s)
Visibility: 4 miles ( 6 km)
Ceiling: 25000 feet AGL
Clouds: scattered clouds at 300 feet AGL
broken clouds at 25000 feet AGL
Weather: BR  (mist)
SOME DATA ABOVE MAY BE INACCURATE!!!
"$" is an indication the sensor requires maintenance

METAR text: KSAN 191029Z 07006KT 2SM BR FEW001 BKN003 BKN250 16/13 A3018 RMK AO2 VIS E-SE-S 1 FG FEW001 T01560133 $
Conditions at: KSAN (SAN DIEGO , CA, US) observed 1029 UTC 19 December 2018
Temperature: 15.6°C (60°F)
Dewpoint: 13.3°C (56°F) [RH = 86%]
Pressure (altimeter): 30.18 inches Hg (1022.1 mb)
Winds: from the ENE (70 degrees) at 7 MPH (6 knots; 3.1 m/s)
Visibility: 2.00 miles (3.22 km)
Ceiling: 300 feet AGL
Clouds: few clouds at 100 feet AGL
broken clouds at 300 feet AGL
broken clouds at 25000 feet AGL
Weather: BR  (mist)
SOME DATA ABOVE MAY BE INACCURATE!!!
"$" is an indication the sensor requires maintenance

METAR text: KSAN 190951Z 03003KT 6SM BR SCT010 BKN250 16/13 A3019 RMK AO2 SLP221 T01610133 $
Conditions at: KSAN (SAN DIEGO , CA, US) observed 0951 UTC 19 December 2018
Temperature: 16.1°C (61°F)
Dewpoint: 13.3°C (56°F) [RH = 83%]
Pressure (altimeter): 30.19 inches Hg (1022.4 mb)
[Sea-level pressure: 1022.1 mb]
Winds: from the NNE (30 degrees) at 3 MPH (3 knots; 1.5 m/s)
Visibility: 6 miles (10 km)
Ceiling: 25000 feet AGL
Clouds: scattered clouds at 1000 feet AGL
broken clouds at 25000 feet AGL
Weather: BR  (mist)
SOME DATA ABOVE MAY BE INACCURATE!!!
"$" is an indication the sensor requires maintenance

Forecast for: KSAN (SAN DIEGO , CA, US)
Text: KSAN 191002Z 1910/2012 00000KT 6SM BR BKN011
Forecast period: 1000 to 1400 UTC 19 December 2018
Forecast type: FROM: standard forecast or significant change
Winds: calm
Visibility: 6 miles (10 km)
Ceiling: 1100 feet AGL
Clouds: broken clouds at 1100 feet AGL
Weather: BR  (mist)
Text: TEMPO 1910/1914 P6SM NSW SCT010
Forecast period: 1000 to 1400 UTC 19 December 2018
Forecast type: TEMPORARY: The following changes expected for less than half the time period
Visibility: 6 or more miles 10+ km)
Ceiling: at least 12,000 feet AGL
Clouds: scattered clouds at 1000 feet AGL
Weather: NSW  (no significant weather)
Text: FM191400 VRB03KT P6SM SCT015 SCT250
Forecast period: 1400 to 2000 UTC 19 December 2018
Forecast type: FROM: standard forecast or significant change
Winds: variable direction winds at 3 MPH (3 knots; 1.5 m/s)
Visibility: 6 or more miles 10+ km)
Ceiling: at least 12,000 feet AGL
Clouds: scattered clouds at 1500 feet AGL
scattered clouds at 25000 feet AGL
Weather: no significant weather forecast for this period
Text: FM192000 29008KT P6SM SCT250
Forecast period: 2000 UTC 19 December 2018 to 0100 UTC 20 December 2018
Forecast type: FROM: standard forecast or significant change
Winds: from the WNW (290 degrees) at 9 MPH (8 knots; 4.1 m/s)
Visibility: 6 or more miles 10+ km)
Ceiling: at least 12,000 feet AGL
Clouds: scattered clouds at 25000 feet AGL
Weather: no significant weather forecast for this period
Text: FM200100 VRB04KT P6SM SCT250
Forecast period: 0100 to 1200 UTC 20 December 2018
Forecast type: FROM: standard forecast or significant change
Winds: variable direction winds at 5 MPH (4 knots; 2.1 m/s)
Visibility: 6 or more miles 10+ km)
Ceiling: at least 12,000 feet AGL
Clouds: scattered clouds at 25000 feet AGL
Weather: no significant weather forecast for this period